createdAt,value
2018-06-03T00:01:40.250Z,65.11
2018-06-03T00:04:08.532Z,65.08
2018-06-03T00:06:36.916Z,65.51
2018-06-03T00:09:05.210Z,65.26
2018-06-03T00:11:33.492Z,65.31
2018-06-03T00:14:01.846Z,65.00
2018-06-03T00:16:30.145Z,65.10
2018-06-03T00:18:58.415Z,65.20
2018-06-03T00:21:43.230Z,65.33
2018-06-03T00:24:11.543Z,65.78
2018-06-03T00:26:39.837Z,66.28
2018-06-03T00:29:08.170Z,66.44
2018-06-03T00:31:36.468Z,66.46
2018-06-03T00:34:04.754Z,67.13
2018-06-03T00:36:45.551Z,67.31
2018-06-03T00:39:13.870Z,67.38
2018-06-03T00:41:42.202Z,67.30
2018-06-03T00:44:10.486Z,67.09
2018-06-03T00:46:38.764Z,67.07
2018-06-03T00:49:07.827Z,66.95
2018-06-03T00:51:36.118Z,66.83
2018-06-03T00:54:04.399Z,66.60
2018-06-03T00:56:51.313Z,66.69
2018-06-03T00:59:51.971Z,68.17
2018-06-03T01:02:21.141Z,68.32
2018-06-03T01:04:50.307Z,68.21
2018-06-03T01:07:19.607Z,68.35
2018-06-03T01:09:48.758Z,68.51
2018-06-03T01:12:17.935Z,68.30
2018-06-03T01:14:47.157Z,68.41
2018-06-03T01:17:16.301Z,68.00
2018-06-03T01:19:45.467Z,67.89
2018-06-03T01:22:14.638Z,68.67
2018-06-03T01:24:43.805Z,68.17
2018-06-03T01:27:12.972Z,68.39
2018-06-03T01:29:42.227Z,68.48
2018-06-03T01:32:11.407Z,69.38
2018-06-03T01:34:40.567Z,69.31
2018-06-03T01:37:09.742Z,68.91
2018-06-03T01:39:38.902Z,69.01
2018-06-03T01:42:08.072Z,69.43
2018-06-03T01:44:37.234Z,69.54
2018-06-03T01:47:06.422Z,69.57
2018-06-03T01:49:35.638Z,69.24
2018-06-03T01:52:04.805Z,69.10
2018-06-03T01:54:33.982Z,69.50
2018-06-03T01:57:03.134Z,69.77
2018-06-03T01:59:32.310Z,69.80
2018-06-03T02:02:01.505Z,68.94
2018-06-03T02:04:30.664Z,69.35
2018-06-03T02:07:00.078Z,69.26
2018-06-03T02:09:29.238Z,69.55
2018-06-03T02:11:58.395Z,69.56
2018-06-03T02:14:27.566Z,69.87
2018-06-03T02:16:56.706Z,69.86
2018-06-03T02:19:25.846Z,69.26
2018-06-03T02:21:54.997Z,70.04
2018-06-03T02:24:24.128Z,69.53
2018-06-03T02:26:53.278Z,69.50
2018-06-03T02:29:22.406Z,69.82
2018-06-03T02:31:51.554Z,69.13
2018-06-03T02:34:20.696Z,69.35
2018-06-03T02:36:50.842Z,69.46
2018-06-03T02:39:19.986Z,69.50
2018-06-03T02:41:49.120Z,69.50
2018-06-03T02:44:18.271Z,69.08
2018-06-03T02:46:47.394Z,69.34
2018-06-03T02:49:16.570Z,69.39
2018-06-03T02:51:45.698Z,69.35
2018-06-03T02:54:14.840Z,69.43
2018-06-03T02:56:43.969Z,70.08
2018-06-03T02:59:13.107Z,69.42
2018-06-03T03:01:42.329Z,68.99
2018-06-03T03:04:11.448Z,69.31
2018-06-03T03:06:40.644Z,69.16
2018-06-03T03:09:09.791Z,69.51
2018-06-03T03:11:38.931Z,70.08
2018-06-03T03:14:08.110Z,69.49
2018-06-03T03:16:37.316Z,70.07
2018-06-03T03:19:06.474Z,69.98
2018-06-03T03:21:35.642Z,70.11
2018-06-03T03:24:04.819Z,70.06
2018-06-03T03:26:33.991Z,69.83
2018-06-03T03:29:03.151Z,69.72
2018-06-03T03:31:32.318Z,69.53
2018-06-03T03:34:01.497Z,69.95
2018-06-03T03:36:30.670Z,69.44
2018-06-03T03:38:59.610Z,69.62
2018-06-03T03:41:28.803Z,69.80
2018-06-03T03:43:57.962Z,69.66
2018-06-03T03:46:27.200Z,69.39
2018-06-03T03:48:56.577Z,68.83
2018-06-03T03:51:25.730Z,69.91
2018-06-03T03:53:54.885Z,69.91
2018-06-03T03:56:24.063Z,69.85
2018-06-03T03:58:53.002Z,70.55
2018-06-03T04:01:22.153Z,69.94
2018-06-03T04:03:51.318Z,70.34
2018-06-03T04:06:20.850Z,70.57
2018-06-03T04:08:50.030Z,70.38
2018-06-03T04:11:19.278Z,69.46
2018-06-03T04:13:48.427Z,70.37
2018-06-03T04:16:17.602Z,69.53
2018-06-03T04:18:46.778Z,69.56
2018-06-03T04:21:15.934Z,69.05
2018-06-03T04:23:44.857Z,69.56
2018-06-03T04:26:14.025Z,69.44
2018-06-03T04:28:42.949Z,69.21
2018-06-03T04:31:12.105Z,69.43
2018-06-03T04:33:41.286Z,70.02
2018-06-03T04:36:10.527Z,69.48
2018-06-03T04:38:39.677Z,69.57
2018-06-03T04:41:08.860Z,69.74
2018-06-03T04:43:38.046Z,69.45
2018-06-03T04:46:07.199Z,69.49
2018-06-03T04:48:36.355Z,68.86
2018-06-03T04:51:05.530Z,69.59
2018-06-03T04:53:34.707Z,69.30
2018-06-03T04:56:04.097Z,69.33
2018-06-03T04:58:33.259Z,68.89
2018-06-03T05:01:02.415Z,68.93
2018-06-03T05:03:31.591Z,68.78
2018-06-03T05:06:00.798Z,67.72
2018-06-03T05:08:30.032Z,68.19
2018-06-03T05:10:59.341Z,68.50
2018-06-03T05:13:28.510Z,68.23
2018-06-03T05:15:58.007Z,67.99
2018-06-03T05:18:27.250Z,68.59
2018-06-03T05:20:56.497Z,67.48
2018-06-03T05:23:25.793Z,67.83
2018-06-03T05:25:54.977Z,67.20
2018-06-03T05:28:24.258Z,67.35
2018-06-03T05:30:53.478Z,67.53
2018-06-03T05:33:22.706Z,67.25
2018-06-03T05:35:51.906Z,66.21
2018-06-03T05:38:21.122Z,66.45
2018-06-03T05:40:50.296Z,65.86
2018-06-03T05:43:19.477Z,66.48
2018-06-03T05:45:49.006Z,65.77
2018-06-03T05:48:18.315Z,65.65
2018-06-03T05:50:47.469Z,65.72
2018-06-03T05:53:16.697Z,66.11
2018-06-03T05:55:45.900Z,65.24
2018-06-03T05:58:15.064Z,65.05
2018-06-03T06:00:44.216Z,65.60
2018-06-03T06:03:13.402Z,64.54
2018-06-03T06:05:42.758Z,65.13
2018-06-03T06:08:11.932Z,65.29
2018-06-03T06:10:41.174Z,64.43
2018-06-03T06:13:10.691Z,63.05
2018-06-03T06:15:39.902Z,63.79
2018-06-03T06:18:09.038Z,64.48
2018-06-03T06:20:38.175Z,65.19
2018-06-03T06:23:08.329Z,65.49
2018-06-03T06:25:37.494Z,65.91
2018-06-03T06:28:06.658Z,65.31
2018-06-03T06:30:35.790Z,65.32
2018-06-03T06:33:05.041Z,64.30
2018-06-03T06:35:34.371Z,65.35
2018-06-03T06:38:03.506Z,64.68
2018-06-03T06:40:32.633Z,65.33
2018-06-03T06:43:01.802Z,64.35
2018-06-03T06:45:30.927Z,63.55
2018-06-03T06:48:00.078Z,63.51
2018-06-03T06:50:29.738Z,63.88
2018-06-03T06:52:59.118Z,63.11
2018-06-03T06:55:28.253Z,63.75
2018-06-03T06:57:57.393Z,63.56
2018-06-03T07:00:26.550Z,61.91
2018-06-03T07:02:55.737Z,61.96
2018-06-03T07:05:24.968Z,62.35
2018-06-03T07:07:54.127Z,60.99
2018-06-03T07:10:23.253Z,60.63
2018-06-03T07:12:52.402Z,60.37
2018-06-03T07:15:21.563Z,59.72
2018-06-03T07:17:50.753Z,63.65
2018-06-03T07:20:19.926Z,62.07
2018-06-03T07:22:49.126Z,62.43
2018-06-03T07:25:18.303Z,60.81
2018-06-03T07:27:47.476Z,60.49
2018-06-03T07:30:16.654Z,59.80
2018-06-03T07:32:45.863Z,61.15
2018-06-03T07:35:15.011Z,62.01
2018-06-03T07:37:44.161Z,60.60
2018-06-03T07:40:13.295Z,60.53
2018-06-03T07:42:42.326Z,61.46
2018-06-03T07:45:11.480Z,61.52
2018-06-03T07:47:40.597Z,57.88
2018-06-03T07:50:10.094Z,58.73
2018-06-03T07:52:39.226Z,58.63
2018-06-03T07:55:08.350Z,57.49
2018-06-03T07:57:37.578Z,58.27
2018-06-03T08:00:06.749Z,57.95
2018-06-03T08:02:35.907Z,60.54
2018-06-03T08:05:05.056Z,60.06
2018-06-03T08:07:34.199Z,58.58
2018-06-03T08:10:03.364Z,57.22
2018-06-03T08:12:32.530Z,58.90
2018-06-03T08:15:01.724Z,59.27
2018-06-03T08:17:30.878Z,59.75
2018-06-03T08:20:00.057Z,58.55
2018-06-03T08:22:29.214Z,58.71
2018-06-03T08:24:58.411Z,57.77
2018-06-03T08:27:27.598Z,58.04
2018-06-03T08:29:56.771Z,55.60
2018-06-03T08:32:25.936Z,54.25
2018-06-03T08:34:55.105Z,53.21
2018-06-03T08:37:24.245Z,55.27
2018-06-03T08:39:53.371Z,55.67
2018-06-03T08:42:22.505Z,53.85
2018-06-03T08:44:51.648Z,55.10
2018-06-03T08:47:20.790Z,56.04
2018-06-03T08:49:49.922Z,58.73
2018-06-03T08:52:19.066Z,57.99
2018-06-03T08:54:48.542Z,57.12
2018-06-03T08:57:17.665Z,57.81
2018-06-03T08:59:46.925Z,55.90
2018-06-03T09:02:16.061Z,57.09
2018-06-03T09:04:45.206Z,56.45
2018-06-03T09:07:14.427Z,55.47
2018-06-03T09:09:43.566Z,55.98
2018-06-03T09:12:12.699Z,55.74
2018-06-03T09:14:41.839Z,54.90
2018-06-03T09:17:11.013Z,53.39
2018-06-03T09:19:40.138Z,54.65
2018-06-03T09:22:09.305Z,56.18
2018-06-03T09:24:38.431Z,56.83
2018-06-03T09:27:07.570Z,54.61
2018-06-03T09:29:36.860Z,53.92
2018-06-03T09:32:06.050Z,52.96
2018-06-03T09:34:35.215Z,52.92
2018-06-03T09:37:04.391Z,52.97
2018-06-03T09:39:33.521Z,54.54
2018-06-03T09:42:02.720Z,53.82
2018-06-03T09:44:31.888Z,52.71
2018-06-03T09:47:00.988Z,52.43
2018-06-03T09:49:30.379Z,55.37
2018-06-03T09:51:59.515Z,52.67
2018-06-03T09:54:28.654Z,53.60
2018-06-03T09:56:57.811Z,51.33
2018-06-03T09:59:26.947Z,50.77
2018-06-03T10:01:56.107Z,50.52
2018-06-03T10:04:25.243Z,51.53
2018-06-03T10:06:54.378Z,51.96
2018-06-03T10:09:23.530Z,53.83
2018-06-03T10:11:52.684Z,51.26
2018-06-03T10:14:21.814Z,50.69
2018-06-03T10:16:51.322Z,50.36
2018-06-03T10:19:20.317Z,53.57
2018-06-03T10:21:49.506Z,52.34
2018-06-03T10:24:18.703Z,52.52
2018-06-03T10:26:47.649Z,52.50
2018-06-03T10:29:16.835Z,51.18
2018-06-03T10:31:46.038Z,52.33
2018-06-03T10:34:15.210Z,53.82
2018-06-03T10:36:44.393Z,54.25
2018-06-03T10:39:13.583Z,54.79
2018-06-03T10:41:42.743Z,51.88
2018-06-03T10:44:11.937Z,51.64
2018-06-03T10:46:41.481Z,49.87
2018-06-03T10:49:10.786Z,49.80
2018-06-03T10:51:39.977Z,48.27
2018-06-03T10:54:09.212Z,51.02
2018-06-03T10:56:38.390Z,48.14
2018-06-03T10:59:07.685Z,49.08
2018-06-03T11:01:37.022Z,49.18
2018-06-03T11:04:06.170Z,50.66
2018-06-03T11:06:35.329Z,48.81
2018-06-03T11:09:05.684Z,48.84
2018-06-03T11:11:34.847Z,47.10
2018-06-03T11:14:04.026Z,48.46
2018-06-03T11:16:33.218Z,46.20
2018-06-03T11:19:02.359Z,47.70
2018-06-03T11:21:31.699Z,46.13
2018-06-03T11:24:01.020Z,47.77
2018-06-03T11:26:30.175Z,48.82
2018-06-03T11:28:59.347Z,49.54
2018-06-03T11:31:28.786Z,44.54
2018-06-03T11:33:57.946Z,46.57
2018-06-03T11:36:27.120Z,48.67
2018-06-03T11:38:56.319Z,43.34
2018-06-03T11:41:25.634Z,47.39
2018-06-03T11:43:54.807Z,45.42
2018-06-03T11:46:24.032Z,43.07
2018-06-03T11:48:53.290Z,45.59
2018-06-03T11:51:22.784Z,44.64
2018-06-03T11:53:52.028Z,45.08
2018-06-03T11:56:21.162Z,43.67
2018-06-03T11:58:53.046Z,43.11
2018-06-03T12:01:22.537Z,43.22
2018-06-03T12:03:51.708Z,44.85
2018-06-03T12:06:20.964Z,43.94
2018-06-03T12:08:50.134Z,43.07
2018-06-03T12:11:19.362Z,43.41
2018-06-03T12:13:48.544Z,44.85
2018-06-03T12:16:18.459Z,43.00
2018-06-03T12:18:48.288Z,42.31
2018-06-03T12:21:18.289Z,41.22
2018-06-03T12:23:48.344Z,43.31
2018-06-03T12:26:18.811Z,40.09
2018-06-03T12:28:48.763Z,40.73
2018-06-03T12:31:18.713Z,42.15
2018-06-03T12:33:48.762Z,40.77
2018-06-03T12:36:18.782Z,42.34
2018-06-03T12:38:49.001Z,40.18
2018-06-03T12:41:18.446Z,42.05
2018-06-03T12:43:47.823Z,43.65
2018-06-03T12:46:18.174Z,42.40
2018-06-03T12:48:47.493Z,43.38
2018-06-03T12:51:16.867Z,39.47
2018-06-03T12:53:46.350Z,41.47
2018-06-03T12:56:15.443Z,41.84
2018-06-03T12:58:44.606Z,41.27
2018-06-03T13:01:13.785Z,38.68
2018-06-03T13:03:43.050Z,40.17
2018-06-03T13:06:12.230Z,41.34
2018-06-03T13:08:41.451Z,39.25
2018-06-03T13:11:10.894Z,41.38
2018-06-03T13:13:40.063Z,39.27
2018-06-03T13:16:09.214Z,41.52
2018-06-03T13:18:38.396Z,39.66
2018-06-03T13:21:07.552Z,40.61
2018-06-03T13:23:36.782Z,41.86
2018-06-03T13:26:06.006Z,42.52
2018-06-03T13:28:35.229Z,41.26
2018-06-03T13:31:04.414Z,42.59
2018-06-03T13:33:33.579Z,40.90
2018-06-03T13:36:02.805Z,42.05
2018-06-03T13:38:31.959Z,41.72
2018-06-03T13:41:01.128Z,42.70
2018-06-03T13:43:30.303Z,40.88
2018-06-03T13:45:59.526Z,42.69
2018-06-03T13:48:28.766Z,39.40
2018-06-03T13:50:57.974Z,40.03
2018-06-03T13:53:27.153Z,40.39
2018-06-03T13:55:56.312Z,41.57
2018-06-03T13:58:25.470Z,41.82
2018-06-03T14:00:54.646Z,44.90
2018-06-03T14:03:23.833Z,41.35
2018-06-03T14:05:52.993Z,42.12
2018-06-03T14:08:22.204Z,42.31
2018-06-03T14:10:51.357Z,43.58
2018-06-03T14:13:20.567Z,42.66
2018-06-03T14:15:49.839Z,42.34
2018-06-03T14:18:19.347Z,41.38
2018-06-03T14:20:48.526Z,41.51
2018-06-03T14:23:17.695Z,38.06
2018-06-03T14:25:46.867Z,38.18
2018-06-03T14:28:16.059Z,40.45
2018-06-03T14:30:45.243Z,40.85
2018-06-03T14:33:14.216Z,40.06
2018-06-03T14:35:43.359Z,41.64
2018-06-03T14:38:12.531Z,40.76
2018-06-03T14:40:41.873Z,41.11
2018-06-03T14:43:11.029Z,42.57
2018-06-03T14:45:40.222Z,39.66
2018-06-03T14:48:09.385Z,39.80
2018-06-03T14:50:38.576Z,42.38
2018-06-03T14:53:07.725Z,41.73
2018-06-03T14:55:36.886Z,41.29
2018-06-03T14:58:06.093Z,40.63
2018-06-03T15:00:35.219Z,39.52
2018-06-03T15:03:04.390Z,40.68
2018-06-03T15:05:33.579Z,39.11
2018-06-03T15:08:02.777Z,40.32
2018-06-03T15:10:31.949Z,40.62
2018-06-03T15:13:01.102Z,40.36
2018-06-03T15:15:30.290Z,39.80
2018-06-03T15:17:59.455Z,40.07
2018-06-03T15:20:28.735Z,41.22
2018-06-03T15:22:57.911Z,41.93
2018-06-03T15:25:27.087Z,42.24
2018-06-03T15:27:56.594Z,41.46
2018-06-03T15:30:25.762Z,42.09
2018-06-03T15:32:54.991Z,41.40
2018-06-03T15:35:24.194Z,42.53
2018-06-03T15:37:54.001Z,41.73
2018-06-03T15:40:24.238Z,40.98
2018-06-03T15:42:53.397Z,42.88
2018-06-03T15:45:22.570Z,43.00
2018-06-03T15:47:51.729Z,43.28
2018-06-03T15:50:20.902Z,43.62
2018-06-03T15:52:50.071Z,42.53
2018-06-03T15:55:19.308Z,42.41
2018-06-03T15:57:48.459Z,42.29
2018-06-03T16:00:17.635Z,42.80
2018-06-03T16:02:47.882Z,43.26
2018-06-03T16:05:17.050Z,44.12
2018-06-03T16:07:46.231Z,43.88
2018-06-03T16:10:15.419Z,43.80
2018-06-03T16:12:44.590Z,43.17
2018-06-03T16:15:13.754Z,44.46
2018-06-03T16:17:42.918Z,43.20
2018-06-03T16:20:12.086Z,42.90
2018-06-03T16:22:41.259Z,42.81
2018-06-03T16:25:10.438Z,44.09
2018-06-03T16:27:39.835Z,44.67
2018-06-03T16:30:08.760Z,43.81
2018-06-03T16:32:37.927Z,45.17
2018-06-03T16:35:07.176Z,44.45
2018-06-03T16:37:36.347Z,44.39
2018-06-03T16:40:05.547Z,44.59
2018-06-03T16:42:34.715Z,44.28
2018-06-03T16:45:03.912Z,46.41
2018-06-03T16:47:33.114Z,44.65
2018-06-03T16:50:02.315Z,45.88
2018-06-03T16:52:31.514Z,45.91
2018-06-03T16:55:01.101Z,45.77
2018-06-03T16:57:30.267Z,46.41
2018-06-03T16:59:59.430Z,45.86
2018-06-03T17:02:28.601Z,46.11
2018-06-03T17:04:57.769Z,46.34
2018-06-03T17:07:26.948Z,47.26
2018-06-03T17:09:56.192Z,47.34
2018-06-03T17:12:25.379Z,47.96
2018-06-03T17:14:54.554Z,48.20
2018-06-03T17:17:23.726Z,47.09
2018-06-03T17:19:52.987Z,47.86
2018-06-03T17:22:22.143Z,47.40
2018-06-03T17:24:51.562Z,47.41
2018-06-03T17:27:20.743Z,46.94
2018-06-03T17:29:49.888Z,47.31
2018-06-03T17:32:19.118Z,47.42
2018-06-03T17:34:48.563Z,46.63
2018-06-03T17:37:17.774Z,46.48
2018-06-03T17:39:46.970Z,46.73
2018-06-03T17:42:16.176Z,46.79
2018-06-03T17:44:45.394Z,46.40
2018-06-03T17:47:14.562Z,47.35
2018-06-03T17:49:43.784Z,47.09
2018-06-03T17:52:12.968Z,46.88
2018-06-03T17:54:42.131Z,46.65
2018-06-03T17:57:11.370Z,46.69
2018-06-03T17:59:40.771Z,46.68
2018-06-03T18:02:09.938Z,46.90
2018-06-03T18:04:39.091Z,47.27
2018-06-03T18:07:08.266Z,48.47
2018-06-03T18:09:37.434Z,48.07
2018-06-03T18:12:06.616Z,48.30
2018-06-03T18:14:35.786Z,48.25
2018-06-03T18:17:05.117Z,48.62
2018-06-03T18:19:34.350Z,48.80
2018-06-03T18:22:03.566Z,48.64
2018-06-03T18:24:32.737Z,47.93
2018-06-03T18:27:01.923Z,49.85
2018-06-03T18:29:31.855Z,49.67
2018-06-03T18:32:01.210Z,50.01
2018-06-03T18:34:30.590Z,49.26
2018-06-03T18:36:59.964Z,50.75
2018-06-03T18:39:29.214Z,49.94
2018-06-03T18:41:58.378Z,49.87
2018-06-03T18:44:27.670Z,50.81
2018-06-03T18:46:57.014Z,50.45
2018-06-03T18:49:25.950Z,50.64
2018-06-03T18:51:55.414Z,51.67
2018-06-03T18:54:24.613Z,52.05
2018-06-03T18:56:53.911Z,53.19
2018-06-03T18:59:23.432Z,53.59
2018-06-03T19:01:52.703Z,54.05
2018-06-03T19:04:21.862Z,54.42
2018-06-03T19:06:51.385Z,54.64
2018-06-03T19:09:21.535Z,53.59
2018-06-03T19:11:50.755Z,54.55
2018-06-03T19:14:19.976Z,54.35
2018-06-03T19:16:49.147Z,55.48
2018-06-03T19:19:18.084Z,55.70
2018-06-03T19:21:47.350Z,55.66
2018-06-03T19:24:16.518Z,56.03
2018-06-03T19:26:45.818Z,55.01
2018-06-03T19:29:15.114Z,56.29
2018-06-03T19:31:44.607Z,55.96
2018-06-03T19:34:13.919Z,55.64
2018-06-03T19:36:43.126Z,55.96
2018-06-03T19:39:12.363Z,55.43
2018-06-03T19:41:41.512Z,56.35
2018-06-03T19:44:11.039Z,56.54
2018-06-03T19:46:40.258Z,57.48
2018-06-03T19:49:09.421Z,57.81
2018-06-03T19:51:38.648Z,56.90
2018-06-03T19:54:07.984Z,56.72
2018-06-03T19:56:37.146Z,57.10
2018-06-03T19:59:06.752Z,56.35
2018-06-03T20:01:35.924Z,56.61
2018-06-03T20:04:05.133Z,56.80
2018-06-03T20:06:34.462Z,57.60
2018-06-03T20:09:04.347Z,57.92
2018-06-03T20:11:34.051Z,58.29
2018-06-03T20:14:03.530Z,59.09
2018-06-03T20:16:32.698Z,58.45
2018-06-03T20:19:01.877Z,58.58
2018-06-03T20:21:31.099Z,59.17
2018-06-03T20:24:00.232Z,58.69
2018-06-03T20:26:29.386Z,58.31
2018-06-03T20:28:58.541Z,58.75
2018-06-03T20:31:27.477Z,58.56
2018-06-03T20:33:56.613Z,59.54
2018-06-03T20:36:25.777Z,60.47
2018-06-03T20:38:54.954Z,60.07
2018-06-03T20:43:52.422Z,59.49
2018-06-03T20:46:21.616Z,59.37
2018-06-03T20:48:51.196Z,60.16
2018-06-03T20:51:20.353Z,59.92
2018-06-03T20:53:49.526Z,59.68
2018-06-03T20:56:18.998Z,59.75
2018-06-03T20:58:48.302Z,60.18
2018-06-03T21:01:17.305Z,60.29
2018-06-03T21:03:46.490Z,59.73
2018-06-03T21:06:15.707Z,59.82
2018-06-03T21:08:44.865Z,60.64
2018-06-03T21:11:13.924Z,60.29
2018-06-03T21:13:43.097Z,61.07
2018-06-03T21:16:12.275Z,60.76
2018-06-03T21:18:41.448Z,60.86
2018-06-03T21:21:10.694Z,60.71
2018-06-03T21:23:39.890Z,60.83
2018-06-03T21:26:09.476Z,60.22
2018-06-03T21:28:38.658Z,59.99
2018-06-03T21:31:07.822Z,61.05
2018-06-03T21:33:37.022Z,60.45
2018-06-03T21:36:06.442Z,59.84
2018-06-03T21:38:35.395Z,59.78
2018-06-03T21:41:04.567Z,60.47
2018-06-03T21:43:33.871Z,60.55
2018-06-03T21:46:03.050Z,59.21
2018-06-03T21:48:32.279Z,59.92
2018-06-03T21:51:01.827Z,59.63
2018-06-03T21:53:31.038Z,58.46
2018-06-03T21:56:00.174Z,59.23
2018-06-03T21:58:29.380Z,59.26
2018-06-03T22:00:58.470Z,59.43
2018-06-03T22:03:27.950Z,59.71
2018-06-03T22:05:56.858Z,60.76
2018-06-03T22:08:25.999Z,59.97
2018-06-03T22:10:55.433Z,61.30
2018-06-03T22:13:24.567Z,60.54
2018-06-03T22:15:53.697Z,60.10
2018-06-03T22:18:23.059Z,60.82
2018-06-03T22:20:52.190Z,60.09
2018-06-03T22:23:21.318Z,60.71
2018-06-03T22:25:50.461Z,60.67
2018-06-03T22:28:19.610Z,60.26
2018-06-03T22:30:48.739Z,59.10
2018-06-03T22:33:17.882Z,60.22
2018-06-03T22:35:47.078Z,60.66
2018-06-03T22:38:16.255Z,60.17
2018-06-03T22:40:45.428Z,59.99
2018-06-03T22:43:14.604Z,60.14
2018-06-03T22:45:43.759Z,60.30
2018-06-03T22:48:12.926Z,61.43
2018-06-03T22:50:42.077Z,60.88
2018-06-03T22:53:11.306Z,60.61
2018-06-03T22:55:40.482Z,60.43
2018-06-03T22:58:09.658Z,61.52
2018-06-03T23:00:38.827Z,61.37
2018-06-03T23:03:13.382Z,60.79
2018-06-03T23:05:42.627Z,61.25
2018-06-03T23:08:11.883Z,61.50
2018-06-03T23:10:41.051Z,61.71
2018-06-03T23:13:10.209Z,61.19
2018-06-03T23:15:39.378Z,60.92
2018-06-03T23:18:08.566Z,60.75
2018-06-03T23:20:37.715Z,60.82
2018-06-03T23:23:06.863Z,61.48
2018-06-03T23:25:36.006Z,61.56
2018-06-03T23:28:05.141Z,61.28
2018-06-03T23:30:34.291Z,61.07
2018-06-03T23:33:03.436Z,60.75
2018-06-03T23:35:32.710Z,60.84
2018-06-03T23:38:01.875Z,60.22
2018-06-03T23:40:31.092Z,59.54
2018-06-03T23:43:00.230Z,59.67
2018-06-03T23:45:29.390Z,58.85
2018-06-03T23:47:58.517Z,60.70
2018-06-03T23:50:27.709Z,60.15
2018-06-03T23:52:56.851Z,60.25
2018-06-03T23:55:26.037Z,60.30
2018-06-03T23:57:55.070Z,60.52
